METAR AND TAF INFORMATION
METAR FOR LTBS
ADDS - METARS form results

(0238 UTC 26 February 2020)
Data provider http://aviationweather.gov/metar/data/
 
METAR text: LTBS 260220Z 07005KT CAVOK 09/05 Q1016 NOSIG
Conditions at: LTBS (DALAMAN (COMMUNE, TR) observed 0220 UTC 26 February 2020
Temperature: 9.0°C (48°F)
Dewpoint: 5.0°C (41°F) [RH = 76%]
Pressure (altimeter): 30.00 inches Hg (1016.0 mb)
Winds: from the ENE (70 degrees) at 6 MPH (5 knots; 2.6 m/s)
Visibility: 6 or more miles (10+ km)
Ceiling: ceiling and visibility are OK
Clouds: unknown
Weather: no significant weather observed at this time

METAR text: LTBS 260150Z 09007KT CAVOK 09/05 Q1016 NOSIG RMK RWY19 01005KT
Conditions at: LTBS (DALAMAN (COMMUNE, TR) observed 0150 UTC 26 February 2020
Temperature: 9.0°C (48°F)
Dewpoint: 5.0°C (41°F) [RH = 76%]
Pressure (altimeter): 30.00 inches Hg (1016.0 mb)
Winds: from the E (90 degrees) at 8 MPH (7 knots; 3.6 m/s)
Visibility: 6 or more miles (10+ km)
Ceiling: ceiling and visibility are OK
Clouds: unknown
Weather: no significant weather observed at this time

Forecast for: LTBS (DALAMAN (COMMUNE, TR)
Text: TAF LTBS 252240Z 2600/2624 VRB02KT CAVOK
Forecast period: 0000 to 1000 UTC 26 February 2020
Forecast type: FROM: standard forecast or significant change
Winds: variable direction winds at 2 MPH (2 knots; 1.0 m/s)
Visibility: 6 or more miles 10+ km)
Ceiling: unknown
Clouds: missing
Weather: NSW  (no significant weather)
Text: BECMG 2610/2612 17012KT BKN030
Forecast period: 1000 UTC 26 February 2020 to 0000 UTC 27 February 2020
Forecast type: BECOMING: Conditions expected to become as follows by 1200 UTC 26 February 2020
Winds: from the S (170 degrees) at 14 MPH (12 knots; 6.2 m/s)
Visibility: 6 or more miles 10+ km)
Ceiling: 3000 feet AGL
Clouds: broken clouds at 3000 feet AGL
Weather: NSW  (no significant weather)

 AIRPORT MAP

 RUNWAY INFORMATION
Runway 01 Runway length 9842 ft Runway width 148 ft
Runway elevation 10 ft Runway displaced threshold 0 ft Runway heading 15
Runway 19 Runway length 9842 ft Runway width 148 ft
Runway elevation 20 ft Runway displaced threshold 0 ft Runway heading 195

 AIRPORT FREQUENCIES
Type APP Name APP Frequency 119.225 MHZ
Type ATIS Name ATIS Frequency 127.35 MHZ
Type GND Name GND Frequency 121.9 MHZ
Type TWR Name TWR Frequency 118.5 MHZ

 AIRPORT NEAR NAVIGATION AIDS
Type TACAN Name Dalaman Frequency 115300 KHZ
Type VOR-DME Name Dalaman Frequency 114700 KHZ
Type NDB Name Dalaman Frequency 346 KHZ



Powered by Virtual Airlines Manager [v2.6.2]